createdAt,value
2023-02-16T00:00:24.510Z,9.20
2023-02-16T00:02:56.849Z,8.80
2023-02-16T00:05:30.679Z,9.13
2023-02-16T00:08:01.034Z,9.32
2023-02-16T00:10:36.427Z,9.85
2023-02-16T00:13:46.122Z,9.60
2023-02-16T00:16:25.767Z,9.23
2023-02-16T00:18:55.572Z,9.73
2023-02-16T00:21:25.254Z,8.05
2023-02-16T00:23:54.997Z,7.95
2023-02-16T00:26:29.356Z,8.23
2023-02-16T00:29:02.295Z,8.32
2023-02-16T00:31:37.887Z,8.90
2023-02-16T00:34:35.897Z,7.53
2023-02-16T00:37:13.132Z,7.40
2023-02-16T00:39:43.766Z,7.03
2023-02-16T00:42:23.473Z,7.15
2023-02-16T00:44:58.000Z,7.68
2023-02-16T00:47:39.493Z,7.38
2023-02-16T00:50:30.026Z,7.43
2023-02-16T00:53:04.305Z,7.38
2023-02-16T00:58:23.236Z,8.50
2023-02-16T01:01:11.075Z,7.20
2023-02-16T01:03:40.953Z,7.03
2023-02-16T01:06:30.102Z,7.70
2023-02-16T01:09:41.822Z,7.47
2023-02-16T01:12:19.278Z,7.80
2023-02-16T01:14:51.616Z,7.03
2023-02-16T01:17:21.355Z,6.68
2023-02-16T01:19:54.056Z,6.75
2023-02-16T01:22:23.901Z,6.45
2023-02-16T01:24:53.645Z,6.05
2023-02-16T01:27:23.294Z,6.40
2023-02-16T01:29:53.001Z,7.00
2023-02-16T01:32:22.843Z,6.38
2023-02-16T01:34:52.630Z,6.90
2023-02-16T01:37:22.306Z,6.50
2023-02-16T01:39:52.544Z,6.38
2023-02-16T01:42:34.467Z,6.35
2023-02-16T01:45:19.315Z,6.32
2023-02-16T01:48:00.790Z,6.60
2023-02-16T01:50:39.629Z,7.28
2023-02-16T01:53:23.517Z,6.70
2023-02-16T01:55:57.749Z,6.22
2023-02-16T02:01:58.943Z,6.07
2023-02-16T02:05:06.832Z,6.22
2023-02-16T02:07:51.460Z,6.85
2023-02-16T02:10:31.100Z,5.88
2023-02-16T02:13:34.255Z,5.80
2023-02-16T02:16:04.181Z,6.18
2023-02-16T02:18:33.849Z,7.35
2023-02-16T02:21:58.455Z,7.25
2023-02-16T02:25:01.516Z,6.25
2023-02-16T02:27:35.098Z,6.32
2023-02-16T02:30:10.876Z,6.45
2023-02-16T02:33:01.865Z,5.97
2023-02-16T02:35:49.623Z,5.75
2023-02-16T02:38:36.656Z,5.72
2023-02-16T02:41:11.042Z,6.32
2023-02-16T02:43:59.916Z,5.75
2023-02-16T02:46:36.938Z,6.35
2023-02-16T02:49:06.641Z,6.55
2023-02-16T02:51:39.301Z,6.35
2023-02-16T02:54:39.184Z,6.40
2023-02-16T02:57:36.482Z,6.30
2023-02-16T03:00:31.355Z,6.38
2023-02-16T03:05:59.336Z,6.03
2023-02-16T03:08:31.435Z,5.80
2023-02-16T03:11:33.041Z,5.90
2023-02-16T03:14:10.695Z,5.95
2023-02-16T03:17:20.716Z,6.10
2023-02-16T03:20:09.847Z,6.28
2023-02-16T03:22:57.887Z,5.85
2023-02-16T03:25:47.205Z,5.93
2023-02-16T03:28:35.100Z,6.15
2023-02-16T03:31:05.141Z,6.53
2023-02-16T03:33:35.087Z,5.88
2023-02-16T03:36:05.076Z,6.35
2023-02-16T03:38:34.882Z,5.95
2023-02-16T03:41:04.862Z,6.28
2023-02-16T03:43:34.751Z,6.38
2023-02-16T03:46:04.469Z,5.95
2023-02-16T03:48:34.224Z,5.70
2023-02-16T03:51:04.273Z,6.25
2023-02-16T03:53:34.172Z,6.53
2023-02-16T03:56:03.843Z,5.57
2023-02-16T03:58:34.850Z,5.65
2023-02-16T04:01:04.890Z,6.45
2023-02-16T04:03:35.737Z,6.38
2023-02-16T04:06:08.131Z,6.43
2023-02-16T04:08:37.886Z,6.20
2023-02-16T04:11:25.446Z,6.15
2023-02-16T04:13:55.270Z,6.20
2023-02-16T04:16:25.040Z,6.45
2023-02-16T04:18:54.773Z,5.90
2023-02-16T04:21:24.516Z,6.22
2023-02-16T04:23:54.273Z,6.00
2023-02-16T04:26:24.085Z,5.85
2023-02-16T04:28:53.847Z,6.05
2023-02-16T04:31:26.151Z,6.38
2023-02-16T04:34:07.420Z,5.85
2023-02-16T04:36:37.320Z,5.28
2023-02-16T04:39:07.017Z,5.80
2023-02-16T04:41:39.512Z,7.10
2023-02-16T04:44:09.308Z,6.28
2023-02-16T04:46:39.001Z,5.90
2023-02-16T04:49:08.791Z,5.32
2023-02-16T04:51:46.659Z,5.68
2023-02-16T04:54:16.533Z,6.07
2023-02-16T04:56:49.388Z,6.20
2023-02-16T04:59:19.297Z,5.25
2023-02-16T05:01:50.532Z,6.10
2023-02-16T05:04:20.310Z,5.80
2023-02-16T05:06:49.987Z,5.65
2023-02-16T05:09:19.781Z,5.22
2023-02-16T05:12:07.372Z,5.50
2023-02-16T05:14:49.490Z,5.63
2023-02-16T05:17:22.906Z,6.30
2023-02-16T05:19:57.028Z,6.07
2023-02-16T05:22:26.896Z,5.72
2023-02-16T05:24:56.856Z,5.43
2023-02-16T05:27:31.257Z,5.13
2023-02-16T05:30:01.377Z,5.72
2023-02-16T05:32:30.989Z,5.70
2023-02-16T05:35:00.634Z,6.10
2023-02-16T05:37:34.132Z,5.13
2023-02-16T05:40:03.996Z,6.22
2023-02-16T05:42:33.613Z,5.70
2023-02-16T05:45:04.017Z,5.40
2023-02-16T05:47:33.625Z,6.53
2023-02-16T05:50:03.213Z,5.78
2023-02-16T05:52:32.921Z,5.40
2023-02-16T05:55:05.260Z,4.68
2023-02-16T05:57:36.512Z,5.60
2023-02-16T06:00:07.201Z,5.85
2023-02-16T06:02:37.054Z,5.22
2023-02-16T06:05:06.877Z,5.30
2023-02-16T06:07:39.333Z,5.18
2023-02-16T06:10:09.468Z,5.32
2023-02-16T06:12:39.159Z,5.38
2023-02-16T06:15:09.125Z,5.03
2023-02-16T06:17:38.855Z,5.28
2023-02-16T06:20:09.238Z,4.97
2023-02-16T06:22:38.909Z,5.70
2023-02-16T06:25:08.870Z,6.10
2023-02-16T06:27:38.532Z,5.72
2023-02-16T06:30:10.398Z,6.05
2023-02-16T06:32:40.200Z,5.65
2023-02-16T06:35:10.209Z,5.82
2023-02-16T06:37:39.951Z,5.07
2023-02-16T06:40:11.546Z,5.20
2023-02-16T06:42:41.197Z,6.05
2023-02-16T06:45:11.543Z,6.00
2023-02-16T06:47:41.263Z,4.78
2023-02-16T06:50:12.026Z,5.30
2023-02-16T06:52:44.347Z,5.13
2023-02-16T06:55:14.267Z,5.03
2023-02-16T06:57:43.883Z,5.13
2023-02-16T07:00:13.980Z,4.53
2023-02-16T07:02:45.322Z,5.28
2023-02-16T07:05:17.733Z,4.22
2023-02-16T07:07:47.414Z,4.95
2023-02-16T07:10:17.156Z,4.72
2023-02-16T07:12:46.818Z,4.47
2023-02-16T07:15:16.431Z,4.97
2023-02-16T07:17:49.112Z,4.43
2023-02-16T07:20:22.001Z,5.13
2023-02-16T07:22:53.878Z,4.70
2023-02-16T07:25:23.554Z,4.68
2023-02-16T07:27:53.383Z,4.57
2023-02-16T07:30:23.330Z,4.85
2023-02-16T07:32:53.047Z,4.43
2023-02-16T07:35:23.783Z,4.45
2023-02-16T07:37:53.528Z,4.07
2023-02-16T07:40:24.405Z,3.78
2023-02-16T07:42:54.040Z,4.20
2023-02-16T07:45:23.735Z,3.85
2023-02-16T07:47:53.475Z,3.92
2023-02-16T07:50:23.277Z,4.07
2023-02-16T07:52:52.989Z,3.65
2023-02-16T07:55:22.757Z,4.30
2023-02-16T07:57:56.210Z,4.38
2023-02-16T08:00:26.069Z,4.18
2023-02-16T08:02:56.019Z,4.20
2023-02-16T08:05:25.869Z,4.40
2023-02-16T08:07:55.538Z,3.72
2023-02-16T08:10:25.265Z,4.13
2023-02-16T08:12:54.952Z,3.83
2023-02-16T08:15:25.473Z,5.57
2023-02-16T08:17:55.052Z,3.55
2023-02-16T08:20:45.076Z,3.67
2023-02-16T08:23:14.203Z,3.40
2023-02-16T08:25:43.814Z,3.92
2023-02-16T08:28:16.390Z,3.83
2023-02-16T08:30:46.240Z,3.72
2023-02-16T08:33:15.818Z,3.80
2023-02-16T08:35:46.758Z,3.40
2023-02-16T08:38:18.808Z,3.55
2023-02-16T08:40:51.978Z,3.72
2023-02-16T08:43:21.724Z,3.40
2023-02-16T08:45:51.441Z,4.10
2023-02-16T08:48:25.838Z,3.00
2023-02-16T08:50:56.584Z,3.65
2023-02-16T08:53:26.846Z,3.67
2023-02-16T08:56:00.343Z,3.38
2023-02-16T08:58:30.410Z,3.70
2023-02-16T09:01:00.372Z,3.67
2023-02-16T09:03:30.481Z,3.75
2023-02-16T09:06:00.394Z,3.53
2023-02-16T09:08:30.176Z,3.25
2023-02-16T09:11:06.960Z,3.10
2023-02-16T09:13:37.378Z,3.38
2023-02-16T09:16:12.193Z,3.60
2023-02-16T09:18:42.440Z,2.97
2023-02-16T09:21:13.918Z,3.35
2023-02-16T09:23:45.071Z,3.15
2023-02-16T09:26:14.836Z,3.35
2023-02-16T09:28:44.970Z,3.50
2023-02-16T09:31:15.709Z,3.10
2023-02-16T09:33:47.845Z,3.88
2023-02-16T09:36:17.945Z,3.40
2023-02-16T09:38:49.210Z,3.60
2023-02-16T09:41:37.043Z,3.20
2023-02-16T09:44:27.381Z,3.53
2023-02-16T09:46:58.906Z,3.33
2023-02-16T09:49:32.021Z,3.83
2023-02-16T09:52:16.006Z,4.05
2023-02-16T09:54:54.223Z,3.65
2023-02-16T09:57:45.253Z,3.03
2023-02-16T10:00:46.737Z,3.42
2023-02-16T10:03:36.079Z,3.63
2023-02-16T10:06:23.913Z,3.65
2023-02-16T10:08:57.318Z,4.03
2023-02-16T10:11:43.238Z,3.60
2023-02-16T10:14:39.356Z,3.97
2023-02-16T10:17:30.110Z,4.35
2023-02-16T10:20:10.778Z,3.97
2023-02-16T10:22:58.845Z,3.78
2023-02-16T10:25:41.465Z,3.75
2023-02-16T10:28:17.044Z,3.33
2023-02-16T10:30:59.013Z,3.92
2023-02-16T10:33:38.124Z,4.00
2023-02-16T10:36:33.587Z,3.88
2023-02-16T10:39:44.592Z,3.97
2023-02-16T10:42:36.262Z,4.32
2023-02-16T10:45:20.606Z,3.88
2023-02-16T10:47:50.298Z,4.03
2023-02-16T10:50:41.788Z,3.60
2023-02-16T10:53:29.617Z,3.58
2023-02-16T10:56:01.804Z,4.10
2023-02-16T10:58:41.297Z,3.47
2023-02-16T11:01:24.240Z,3.80
2023-02-16T11:03:57.080Z,4.10
2023-02-16T11:06:30.728Z,3.78
2023-02-16T11:09:02.535Z,3.70
2023-02-16T11:11:38.057Z,4.20
2023-02-16T11:14:31.982Z,4.13
2023-02-16T11:17:12.824Z,3.53
2023-02-16T11:19:43.617Z,4.05
2023-02-16T11:22:31.410Z,3.80
2023-02-16T11:25:22.156Z,3.45
2023-02-16T11:27:59.337Z,3.63
2023-02-16T11:30:37.392Z,3.85
2023-02-16T11:33:20.732Z,3.35
2023-02-16T11:35:50.373Z,3.05
2023-02-16T11:38:32.214Z,3.17
2023-02-16T11:41:03.351Z,3.90
2023-02-16T11:43:38.301Z,3.65
2023-02-16T11:46:25.890Z,3.67
2023-02-16T11:48:55.602Z,3.22
2023-02-16T11:51:36.202Z,3.33
2023-02-16T11:54:09.620Z,3.60
2023-02-16T11:56:39.384Z,3.50
2023-02-16T11:59:17.476Z,3.60
2023-02-16T12:02:06.183Z,3.33
2023-02-16T12:05:09.713Z,3.65
2023-02-16T12:07:43.150Z,3.67
2023-02-16T12:10:14.633Z,3.77
2023-02-16T12:13:05.669Z,3.25
2023-02-16T12:15:38.743Z,3.63
2023-02-16T12:18:16.738Z,3.40
2023-02-16T12:21:09.415Z,3.28
2023-02-16T12:23:42.869Z,3.53
2023-02-16T12:26:34.686Z,3.30
2023-02-16T12:29:31.601Z,3.60
2023-02-16T12:32:28.266Z,3.30
2023-02-16T12:35:34.500Z,3.30
2023-02-16T12:38:32.464Z,3.20
2023-02-16T12:41:12.423Z,3.83
2023-02-16T12:43:49.157Z,3.50
2023-02-16T12:46:24.983Z,3.58
2023-02-16T12:48:57.613Z,3.03
2023-02-16T12:51:41.970Z,3.58
2023-02-16T12:54:31.026Z,2.75
2023-02-16T12:57:02.923Z,3.22
2023-02-16T12:59:59.736Z,3.40
2023-02-16T13:02:37.376Z,3.15
2023-02-16T13:05:13.923Z,2.95
2023-02-16T13:07:44.843Z,3.75
2023-02-16T13:10:23.076Z,3.45
2023-02-16T13:13:05.144Z,3.47
2023-02-16T13:15:36.064Z,3.20
2023-02-16T13:18:18.714Z,3.15
2023-02-16T13:21:09.872Z,3.10
2023-02-16T13:23:52.056Z,4.05
2023-02-16T13:26:26.073Z,3.20
2023-02-16T13:29:12.943Z,3.10
2023-02-16T13:32:40.185Z,2.83
2023-02-16T13:35:22.364Z,3.38
2023-02-16T13:38:07.360Z,3.33
2023-02-16T13:40:45.935Z,3.05
2023-02-16T13:43:33.552Z,3.13
2023-02-16T13:46:09.013Z,3.42
2023-02-16T13:48:51.950Z,2.67
2023-02-16T13:51:23.495Z,3.30
2023-02-16T13:53:56.243Z,3.05
2023-02-16T13:56:32.454Z,2.97
2023-02-16T13:59:22.638Z,2.95
2023-02-16T14:01:58.558Z,3.17
2023-02-16T14:04:28.506Z,3.60
2023-02-16T14:07:09.842Z,3.13
2023-02-16T14:09:42.591Z,3.20
2023-02-16T14:12:15.961Z,3.17
2023-02-16T14:14:45.625Z,2.90
2023-02-16T14:17:24.397Z,2.70
2023-02-16T14:20:03.841Z,3.10
2023-02-16T14:22:58.084Z,2.80
2023-02-16T14:25:32.354Z,3.03
2023-02-16T14:30:41.625Z,3.00
2023-02-16T14:33:20.462Z,3.05
2023-02-16T14:36:19.991Z,3.45
2023-02-16T14:38:50.684Z,2.90
2023-02-16T14:41:26.354Z,3.95
2023-02-16T14:44:16.816Z,2.70
2023-02-16T14:47:08.790Z,3.08
2023-02-16T14:50:05.361Z,2.45
2023-02-16T14:53:18.819Z,3.13
2023-02-16T14:56:04.451Z,2.85
2023-02-16T14:58:46.988Z,2.60
2023-02-16T15:01:18.470Z,3.13
2023-02-16T15:03:49.705Z,2.97
2023-02-16T15:06:33.705Z,3.03
2023-02-16T15:09:08.048Z,3.10
2023-02-16T15:14:26.923Z,3.17
2023-02-16T15:16:57.636Z,3.10
2023-02-16T15:19:30.288Z,3.17
2023-02-16T15:22:23.564Z,3.45
2023-02-16T15:25:01.046Z,2.90
2023-02-16T15:27:31.128Z,3.10
2023-02-16T15:30:33.397Z,2.88
2023-02-16T15:33:08.097Z,2.80
2023-02-16T15:35:44.889Z,2.80
2023-02-16T15:38:26.235Z,3.10
2023-02-16T15:40:57.025Z,3.28
2023-02-16T15:43:50.612Z,2.67
2023-02-16T15:46:33.242Z,2.95
2023-02-16T15:49:29.372Z,2.88
2023-02-16T15:51:59.576Z,3.17
2023-02-16T15:54:33.565Z,3.47
2023-02-16T15:57:04.933Z,3.03
2023-02-16T15:59:42.897Z,2.97
2023-02-16T16:02:14.081Z,3.05
2023-02-16T16:04:45.243Z,3.20
2023-02-16T16:07:17.241Z,3.05
2023-02-16T16:09:47.460Z,3.08
2023-02-16T16:12:18.289Z,3.10
2023-02-16T16:14:59.660Z,2.72
2023-02-16T16:17:31.396Z,3.05
2023-02-16T16:20:01.504Z,2.92
2023-02-16T16:22:40.149Z,3.10
2023-02-16T16:25:45.130Z,3.75
2023-02-16T16:28:30.134Z,3.90
2023-02-16T16:31:13.913Z,2.92
2023-02-16T16:34:00.258Z,3.20
2023-02-16T16:36:35.118Z,3.30
2023-02-16T16:39:23.388Z,2.90
2023-02-16T16:42:21.476Z,3.55
2023-02-16T16:44:59.738Z,3.55
2023-02-16T16:47:35.216Z,3.38
2023-02-16T16:50:17.066Z,3.20
2023-02-16T16:52:50.962Z,3.58
2023-02-16T16:55:24.496Z,3.33
2023-02-16T16:57:59.147Z,3.33
2023-02-16T17:00:35.242Z,3.40
2023-02-16T17:03:05.771Z,3.55
2023-02-16T17:05:36.244Z,3.25
2023-02-16T17:08:05.895Z,3.08
2023-02-16T17:10:35.821Z,3.03
2023-02-16T17:13:05.767Z,2.95
2023-02-16T17:15:42.961Z,3.15
2023-02-16T17:18:17.239Z,2.85
2023-02-16T17:23:17.539Z,3.00
2023-02-16T17:25:50.246Z,3.63
2023-02-16T17:28:20.285Z,2.78
2023-02-16T17:30:50.037Z,3.28
2023-02-16T17:33:19.737Z,3.40
2023-02-16T17:35:49.439Z,3.17
2023-02-16T17:38:23.373Z,3.67
2023-02-16T17:40:54.799Z,3.30
2023-02-16T17:43:24.837Z,3.53
2023-02-16T17:45:55.461Z,3.30
2023-02-16T17:48:31.831Z,2.90
2023-02-16T17:51:01.580Z,3.10
2023-02-16T17:53:31.296Z,3.67
2023-02-16T17:56:01.024Z,3.17
2023-02-16T17:58:30.716Z,3.80
2023-02-16T18:01:00.381Z,3.15
2023-02-16T18:03:30.184Z,3.38
2023-02-16T18:05:59.965Z,3.60
2023-02-16T18:08:29.611Z,3.53
2023-02-16T18:11:03.519Z,3.30
2023-02-16T18:13:33.247Z,3.45
2023-02-16T18:16:08.333Z,4.05
2023-02-16T18:18:41.270Z,4.00
2023-02-16T18:21:10.981Z,3.97
2023-02-16T18:23:40.847Z,3.63
2023-02-16T18:26:10.585Z,4.25
2023-02-16T18:28:40.242Z,3.40
2023-02-16T18:31:10.085Z,3.90
2023-02-16T18:33:39.957Z,3.42
2023-02-16T18:36:10.016Z,3.60
2023-02-16T18:38:39.722Z,3.17
2023-02-16T18:41:10.671Z,3.30
2023-02-16T18:43:40.401Z,3.70
2023-02-16T18:46:10.630Z,3.47
2023-02-16T18:48:40.344Z,3.58
2023-02-16T18:51:11.201Z,3.80
2023-02-16T18:53:44.695Z,3.10
2023-02-16T18:56:14.659Z,3.33
2023-02-16T18:58:45.092Z,3.10
2023-02-16T19:01:26.585Z,3.30
2023-02-16T19:03:56.314Z,3.08
2023-02-16T19:06:26.281Z,3.63
2023-02-16T19:08:58.122Z,3.55
2023-02-16T19:11:29.582Z,3.35
2023-02-16T19:13:59.377Z,3.30
2023-02-16T19:16:28.971Z,3.60
2023-02-16T19:18:58.643Z,2.80
2023-02-16T19:21:28.315Z,3.40
2023-02-16T19:23:58.002Z,3.40
2023-02-16T19:26:27.854Z,3.08
2023-02-16T19:29:00.312Z,3.20
2023-02-16T19:31:31.562Z,3.28
2023-02-16T19:34:01.866Z,3.33
2023-02-16T19:36:32.998Z,3.38
2023-02-16T19:39:03.484Z,3.25
2023-02-16T19:41:43.090Z,3.00
2023-02-16T19:44:14.405Z,3.08
2023-02-16T19:46:44.220Z,2.95
2023-02-16T19:49:16.056Z,2.90
2023-02-16T19:51:47.808Z,3.28
2023-02-16T19:54:17.565Z,3.58
2023-02-16T19:56:47.183Z,3.10
2023-02-16T19:59:17.560Z,3.88
2023-02-16T20:01:47.199Z,3.60
2023-02-16T20:04:19.515Z,3.38
2023-02-16T20:06:50.654Z,3.50
2023-02-16T20:09:20.401Z,3.60
2023-02-16T20:11:50.220Z,3.38
2023-02-16T20:14:19.955Z,3.75
2023-02-16T20:16:56.255Z,3.30
2023-02-16T20:19:25.909Z,3.90
2023-02-16T20:21:55.624Z,3.33
2023-02-16T20:24:28.017Z,3.50
2023-02-16T20:26:57.723Z,3.33
2023-02-16T20:29:30.132Z,3.92
2023-02-16T20:32:00.014Z,3.25
2023-02-16T20:34:29.916Z,3.00
2023-02-16T20:36:59.878Z,3.13
2023-02-16T20:39:29.641Z,3.42
2023-02-16T20:42:00.023Z,3.22
2023-02-16T20:44:29.866Z,4.28
2023-02-16T20:46:59.646Z,3.90
2023-02-16T20:49:29.432Z,4.45
2023-02-16T20:51:59.180Z,4.45
2023-02-16T20:54:28.871Z,4.22
2023-02-16T20:56:58.513Z,3.72
2023-02-16T20:59:28.192Z,3.97
2023-02-16T21:01:58.089Z,4.10
2023-02-16T21:04:27.802Z,4.70
2023-02-16T21:06:57.584Z,4.32
2023-02-16T21:09:27.394Z,3.72
2023-02-16T21:11:57.156Z,4.20
2023-02-16T21:14:26.978Z,3.80
2023-02-16T21:16:56.616Z,3.40
2023-02-16T21:19:28.958Z,3.97
2023-02-16T21:21:59.043Z,3.67
2023-02-16T21:24:28.817Z,4.80
2023-02-16T21:26:58.577Z,4.30
2023-02-16T21:29:28.421Z,4.00
2023-02-16T21:31:58.157Z,4.18
2023-02-16T21:34:27.971Z,4.10
2023-02-16T21:36:57.655Z,4.00
2023-02-16T21:39:47.133Z,3.75
2023-02-16T21:42:16.839Z,4.15
2023-02-16T21:44:46.448Z,3.72
2023-02-16T21:47:34.749Z,3.53
2023-02-16T21:50:04.372Z,4.18
2023-02-16T21:52:34.196Z,4.57
2023-02-16T21:55:22.456Z,3.80
2023-02-16T21:57:54.400Z,4.10
2023-02-16T22:00:24.237Z,4.05
2023-02-16T22:02:53.856Z,3.80
2023-02-16T22:05:25.915Z,3.90
2023-02-16T22:07:55.610Z,4.18
2023-02-16T22:10:25.271Z,4.20
2023-02-16T22:12:55.010Z,3.95
2023-02-16T22:15:28.226Z,5.78
2023-02-16T22:17:58.101Z,3.90
2023-02-16T22:20:27.844Z,4.38
2023-02-16T22:23:00.562Z,5.18
2023-02-16T22:25:30.209Z,4.38
2023-02-16T22:27:59.915Z,5.00
2023-02-16T22:30:29.684Z,5.20
2023-02-16T22:32:59.427Z,4.88
2023-02-16T22:35:29.184Z,4.80
2023-02-16T22:37:58.846Z,4.40
2023-02-16T22:40:28.661Z,5.30
2023-02-16T22:42:58.306Z,4.50
2023-02-16T22:45:28.049Z,4.90
2023-02-16T22:47:57.738Z,5.15
2023-02-16T22:50:27.352Z,4.82
2023-02-16T22:52:57.161Z,3.95
2023-02-16T22:55:26.878Z,4.95
2023-02-16T22:57:56.678Z,4.88
2023-02-16T23:00:26.504Z,4.30
2023-02-16T23:02:56.079Z,4.53
2023-02-16T23:05:25.826Z,4.72
2023-02-16T23:07:55.563Z,4.60
2023-02-16T23:10:25.245Z,5.28
2023-02-16T23:12:54.966Z,4.88
2023-02-16T23:15:24.640Z,4.20
2023-02-16T23:17:54.284Z,4.78
2023-02-16T23:20:26.589Z,4.50
2023-02-16T23:22:56.327Z,5.13
2023-02-16T23:25:43.605Z,5.05
2023-02-16T23:28:13.571Z,4.72
2023-02-16T23:30:47.191Z,5.13
2023-02-16T23:33:16.912Z,5.05
2023-02-16T23:35:50.529Z,5.00
2023-02-16T23:38:20.217Z,4.78
2023-02-16T23:41:00.978Z,5.85
2023-02-16T23:43:30.551Z,4.72
2023-02-16T23:46:01.782Z,4.88
2023-02-16T23:48:31.851Z,4.35
2023-02-16T23:51:04.349Z,4.55
2023-02-16T23:53:37.090Z,4.50
2023-02-16T23:56:08.560Z,9.63
2023-02-16T23:58:42.553Z,9.15
